Time;durP1;ratioP1;P1;durP2;ratioP2;P2;SDS_P1;SDS_P2;PMS_P1;PMS_P2;Temp;Humidity;BMP_temperature;BMP_pressure;BME280_temperature;BME280_humidity;BME280_pressure;Samples;Min_cycle;Max_cycle;Signal;HPM_P1;HPM_P2
2023/05/14 00:00:51;;;;;;;15.55;7.93;;;12.30;99.90;;;;;;4992738;28;20078;-69
2023/05/14 00:03:17;;;;;;;12.73;8.20;;;12.40;99.90;;;;;;4992980;28;20560;-69
2023/05/14 00:05:43;;;;;;;12.73;8.70;;;;;;;;;;4976653;28;20117;-68
2023/05/14 00:08:09;;;;;;;14.35;8.30;;;;;;;;;;4993075;28;20408;-68
2023/05/14 00:10:34;;;;;;;25.15;9.23;;;12.40;99.90;;;;;;4992836;28;20126;-68
2023/05/14 00:13:00;;;;;;;12.60;8.20;;;12.20;99.90;;;;;;4993136;28;20038;-68
2023/05/14 00:15:26;;;;;;;16.95;8.93;;;12.40;99.90;;;;;;4992796;28;20050;-68
2023/05/14 00:17:52;;;;;;;14.70;8.60;;;;;;;;;;4992782;28;20100;-68
2023/05/14 00:20:17;;;;;;;13.25;8.27;;;12.20;99.90;;;;;;4992747;28;20038;-69
2023/05/14 00:22:43;;;;;;;12.13;8.07;;;;;;;;;;4992581;28;20046;-68
2023/05/14 00:25:09;;;;;;;13.10;9.20;;;12.40;99.90;;;;;;4992517;28;20046;-68
2023/05/14 00:27:36;;;;;;;17.45;9.20;;;12.30;99.90;;;;;;4993934;28;20038;-68
2023/05/14 00:30:05;;;;;;;12.43;8.43;;;12.50;99.90;;;;;;4992553;28;20049;-69
2023/05/14 00:32:31;;;;;;;17.20;9.90;;;;;;;;;;4992285;28;20045;-69
2023/05/14 00:34:57;;;;;;;13.07;9.52;;;12.30;99.90;;;;;;4992557;28;20043;-68
2023/05/14 00:37:23;;;;;;;19.80;11.10;;;;;;;;;;4991930;28;20049;-68
2023/05/14 00:39:49;;;;;;;18.45;10.95;;;;;;;;;;4976038;28;20424;-69
2023/05/14 00:42:15;;;;;;;15.40;10.98;;;;;;;;;;4992258;28;20042;-69
2023/05/14 00:44:40;;;;;;;15.85;10.40;;;12.00;99.90;;;;;;4992238;28;20050;-69
2023/05/14 00:47:07;;;;;;;16.63;10.43;;;12.10;99.90;;;;;;4992187;28;20035;-68
2023/05/14 00:49:33;;;;;;;13.65;9.65;;;12.30;99.90;;;;;;4992231;28;20641;-69
2023/05/14 00:51:59;;;;;;;16.60;9.75;;;12.20;99.90;;;;;;4991944;28;20038;-69
2023/05/14 00:54:25;;;;;;;18.27;10.85;;;12.30;99.90;;;;;;4992101;28;20074;-69
2023/05/14 00:56:52;;;;;;;16.48;10.75;;;12.20;99.90;;;;;;4991960;28;20112;-68
2023/05/14 00:59:18;;;;;;;17.63;11.27;;;12.10;99.90;;;;;;4991802;28;20492;-68
2023/05/14 01:01:44;;;;;;;18.52;11.27;;;;;;;;;;4974797;28;20046;-69
2023/05/14 01:04:11;;;;;;;16.73;10.40;;;12.10;99.90;;;;;;4991639;28;20049;-68
2023/05/14 01:06:47;;;;;;;17.20;10.88;;;12.10;99.90;;;;;;4990516;28;20053;-69
2023/05/14 01:09:24;;;;;;;17.05;10.48;;;12.30;99.90;;;;;;4992031;28;20038;-69
2023/05/14 01:12:07;;;;;;;15.55;10.52;;;12.10;99.90;;;;;;4991683;28;20049;-68
2023/05/14 01:14:37;;;;;;;15.40;10.75;;;12.10;99.90;;;;;;4991774;28;20539;-68
2023/05/14 01:17:03;;;;;;;15.43;10.27;;;12.10;99.90;;;;;;4991888;28;20500;-68
2023/05/14 01:19:39;;;;;;;17.95;11.05;;;12.20;99.90;;;;;;4991637;28;20169;-68
2023/05/14 01:22:05;;;;;;;16.27;11.98;;;11.90;99.90;;;;;;4991238;28;20096;-69
2023/05/14 01:24:31;;;;;;;22.80;10.98;;;;;;;;;;4991668;28;20050;-69
2023/05/14 01:27:22;;;;;;;19.92;11.75;;;12.10;99.90;;;;;;4975166;28;20500;-69
2023/05/14 01:30:08;;;;;;;15.20;10.15;;;12.00;99.90;;;;;;4991771;28;20381;-69
2023/05/14 01:32:35;;;;;;;18.40;10.10;;;12.10;99.90;;;;;;4991228;28;20034;-68
2023/05/14 01:35:01;;;;;;;18.00;10.20;;;12.10;99.90;;;;;;4992599;28;20046;-68
2023/05/14 01:37:29;;;;;;;19.67;11.23;;;11.90;99.90;;;;;;4991414;28;20052;-68
2023/05/14 01:39:56;;;;;;;16.35;9.95;;;12.00;99.90;;;;;;4991523;28;20068;-69
2023/05/14 01:42:22;;;;;;;14.07;10.18;;;12.00;99.90;;;;;;5007326;28;20042;-69
2023/05/14 01:44:48;;;;;;;16.77;10.35;;;11.90;99.90;;;;;;4991364;28;20476;-69
2023/05/14 01:47:14;;;;;;;16.38;10.38;;;12.00;99.90;;;;;;4990988;28;20514;-69
2023/05/14 01:49:40;;;;;;;17.80;10.70;;;;;;;;;;4991228;28;20038;-69
2023/05/14 01:52:07;;;;;;;19.52;10.95;;;;;;;;;;4991113;28;20112;-69
2023/05/14 01:54:33;;;;;;;16.02;11.10;;;12.00;99.90;;;;;;4991140;28;20121;-69
2023/05/14 01:56:59;;;;;;;19.83;11.05;;;;;;;;;;4992357;28;20174;-69
2023/05/14 01:59:25;;;;;;;16.58;11.55;;;;;;;;;;4991264;28;20108;-69
2023/05/14 02:01:51;;;;;;;16.45;11.05;;;;;;;;;;4990619;28;20053;-68
2023/05/14 02:04:16;;;;;;;18.27;11.02;;;11.90;99.90;;;;;;4990956;28;20129;-68
2023/05/14 02:06:42;;;;;;;15.70;10.68;;;11.90;99.90;;;;;;4991218;28;20658;-68
2023/05/14 02:09:07;;;;;;;19.65;11.68;;;11.70;99.90;;;;;;4991003;28;20049;-68
2023/05/14 02:11:33;;;;;;;13.23;9.95;;;11.80;99.90;;;;;;4990800;28;20046;-69
2023/05/14 02:13:59;;;;;;;19.38;11.00;;;;;;;;;;4977041;28;20113;-69
2023/05/14 02:16:25;;;;;;;15.85;12.00;;;;;;;;;;4978930;28;20467;-68
2023/05/14 02:18:51;;;;;;;22.80;11.65;;;11.50;99.90;;;;;;4994961;28;20093;-69
2023/05/14 02:21:16;;;;;;;17.15;11.90;;;11.80;99.90;;;;;;4978713;28;20073;-69
2023/05/14 02:23:43;;;;;;;19.55;11.60;;;11.50;99.90;;;;;;4994876;28;20034;-69
2023/05/14 02:26:09;;;;;;;20.48;11.82;;;11.80;99.90;;;;;;4994721;28;20046;-69
2023/05/14 02:28:35;;;;;;;21.92;11.45;;;11.80;99.90;;;;;;4994821;28;20034;-69
2023/05/14 02:31:00;;;;;;;20.55;11.32;;;11.70;99.90;;;;;;4995608;28;20541;-69
2023/05/14 02:33:27;;;;;;;18.60;11.63;;;11.80;99.90;;;;;;4994678;28;20050;-68
2023/05/14 02:35:52;;;;;;;23.88;12.48;;;11.90;99.90;;;;;;4994602;28;20125;-69
2023/05/14 02:38:18;;;;;;;22.05;13.15;;;;;;;;;;4995906;28;20074;-69
2023/05/14 02:40:44;;;;;;;20.60;12.18;;;;;;;;;;4994497;28;20045;-68
2023/05/14 02:43:10;;;;;;;21.02;12.48;;;11.70;99.90;;;;;;4978310;28;20081;-68
2023/05/14 02:45:35;;;;;;;17.15;11.27;;;11.80;99.90;;;;;;4994275;28;20096;-69
2023/05/14 02:48:01;;;;;;;23.30;12.73;;;11.70;99.90;;;;;;4978481;28;20066;-69
2023/05/14 02:50:27;;;;;;;20.17;12.57;;;;;;;;;;4995613;28;20038;-67
2023/05/14 02:52:53;;;;;;;20.10;12.90;;;;;;;;;;4994656;28;20556;-69
2023/05/14 02:55:19;;;;;;;19.60;12.85;;;11.70;99.90;;;;;;4994273;28;20121;-68
2023/05/14 02:57:45;;;;;;;24.15;13.55;;;;;;;;;;4994333;28;20046;-69
2023/05/14 03:00:11;;;;;;;19.42;11.90;;;11.90;99.90;;;;;;4996095;28;20042;-68
2023/05/14 03:02:37;;;;;;;27.88;13.50;;;11.60;99.90;;;;;;4994794;28;20105;-69
2023/05/14 03:05:03;;;;;;;23.00;12.07;;;11.70;99.90;;;;;;4978125;28;20049;-68
2023/05/14 03:07:29;;;;;;;22.08;13.27;;;;;;;;;;4994519;28;20504;-69
2023/05/14 03:09:55;;;;;;;22.38;12.40;;;11.80;99.90;;;;;;4993987;28;20038;-69
2023/05/14 03:12:21;;;;;;;19.45;11.93;;;11.70;99.90;;;;;;4993923;28;20570;-69
2023/05/14 03:14:46;;;;;;;24.92;12.40;;;11.90;99.90;;;;;;4994130;28;20065;-69
2023/05/14 03:17:12;;;;;;;26.60;12.23;;;;;;;;;;4994073;28;20046;-69
2023/05/14 03:19:38;;;;;;;20.50;12.63;;;11.90;99.90;;;;;;4994069;28;20046;-69
2023/05/14 03:22:03;;;;;;;21.08;11.82;;;11.90;99.90;;;;;;4977460;28;20042;-68
2023/05/14 03:24:30;;;;;;;19.15;11.02;;;11.90;99.90;;;;;;4992630;28;20050;-69
2023/05/14 03:26:55;;;;;;;18.80;11.65;;;11.80;99.90;;;;;;4993626;28;20470;-69
2023/05/14 03:29:21;;;;;;;18.35;10.73;;;11.90;99.90;;;;;;4993485;28;20129;-69
2023/05/14 03:31:48;;;;;;;25.38;11.05;;;;;;;;;;4993257;28;20089;-69
2023/05/14 03:34:14;;;;;;;24.20;12.23;;;11.70;99.90;;;;;;4993740;28;20046;-69
2023/05/14 03:36:40;;;;;;;18.77;10.95;;;;;;;;;;4993480;28;20034;-68
2023/05/14 03:39:06;;;;;;;24.67;11.70;;;;;;;;;;4977268;28;20064;-68
2023/05/14 03:41:32;;;;;;;20.33;10.70;;;11.80;99.90;;;;;;4993079;28;20077;-68
2023/05/14 03:43:58;;;;;;;20.13;10.27;;;11.80;99.90;;;;;;4993259;28;20870;-69
2023/05/14 03:46:24;;;;;;;21.85;10.20;;;;;;;;;;4993195;28;20174;-69
2023/05/14 03:48:50;;;;;;;18.13;10.90;;;;;;;;;;4993598;28;20095;-69
2023/05/14 03:51:16;;;;;;;24.70;10.90;;;11.60;99.90;;;;;;4993221;28;20155;-69
2023/05/14 03:53:41;;;;;;;21.48;10.73;;;11.70;99.90;;;;;;4993661;28;20114;-68
2023/05/14 03:56:07;;;;;;;22.50;10.38;;;11.80;99.90;;;;;;4994090;28;20077;-69
2023/05/14 03:58:33;;;;;;;26.33;11.35;;;;;;;;;;4993849;28;20423;-69
2023/05/14 04:00:59;;;;;;;25.65;11.18;;;;;;;;;;4992797;28;20504;-68
2023/05/14 04:03:25;;;;;;;24.73;12.10;;;;;;;;;;4976896;28;20039;-68
2023/05/14 04:05:51;;;;;;;21.63;11.38;;;;;;;;;;4992943;28;20058;-68
2023/05/14 04:08:17;;;;;;;18.00;10.50;;;;;;;;;;4992858;28;20039;-68
2023/05/14 04:10:43;;;;;;;25.77;11.93;;;;;;;;;;4992634;28;20038;-69
2023/05/14 04:13:08;;;;;;;21.13;11.45;;;11.80;99.90;;;;;;4992781;28;20126;-69
2023/05/14 04:15:38;;;;;;;25.38;11.27;;;11.90;99.90;;;;;;4992778;28;20042;-69
2023/05/14 04:18:04;;;;;;;20.65;11.10;;;;;;;;;;4992729;28;20047;-69
2023/05/14 04:20:30;;;;;;;28.63;11.02;;;11.80;99.90;;;;;;4992397;28;20092;-68
2023/05/14 04:22:56;;;;;;;28.40;11.38;;;;;;;;;;4992873;28;20043;-69
2023/05/14 04:25:22;;;;;;;25.58;11.52;;;;;;;;;;4992407;28;20050;-68
2023/05/14 04:27:48;;;;;;;24.33;11.95;;;;;;;;;;4992621;28;20049;-68
2023/05/14 04:30:14;;;;;;;28.35;12.13;;;12.30;99.90;;;;;;4992374;28;20038;-69
2023/05/14 04:32:40;;;;;;;22.52;11.25;;;;;;;;;;4992508;28;20057;-69
2023/05/14 04:35:08;;;;;;;25.42;10.93;;;;;;;;;;4976084;28;20053;-69
2023/05/14 04:37:33;;;;;;;27.80;11.85;;;12.20;99.90;;;;;;4982781;28;20042;-68
2023/05/14 04:39:59;;;;;;;26.17;11.65;;;;;;;;;;4992822;28;20045;-69
2023/05/14 04:42:25;;;;;;;24.25;12.10;;;12.10;99.90;;;;;;5008366;28;20050;-68
2023/05/14 04:44:51;;;;;;;22.00;11.00;;;;;;;;;;4993418;28;20112;-69
2023/05/14 04:47:17;;;;;;;20.25;9.75;;;;;;;;;;4993226;28;20054;-69
2023/05/14 04:49:43;;;;;;;22.85;10.77;;;;;;;;;;4992117;28;20043;-69
2023/05/14 04:52:09;;;;;;;20.38;10.40;;;;;;;;;;4991888;28;20070;-68
2023/05/14 04:54:35;;;;;;;19.52;9.07;;;;;;;;;;4991997;28;20046;-68
2023/05/14 04:57:02;;;;;;;18.27;9.20;;;;;;;;;;4991919;28;20667;-68
2023/05/14 04:59:29;;;;;;;24.92;9.95;;;12.60;99.90;;;;;;5008419;28;20057;-68
2023/05/14 05:01:54;;;;;;;18.48;8.63;;;12.80;99.90;;;;;;4991727;28;20042;-69
2023/05/14 05:04:22;;;;;;;25.25;9.55;;;12.70;99.90;;;;;;4991886;28;20049;-69
2023/05/14 05:06:48;;;;;;;26.58;9.85;;;12.80;99.90;;;;;;4991693;28;20080;-68
2023/05/14 05:09:15;;;;;;;20.05;9.88;;;;;;;;;;4990484;28;20113;-69
2023/05/14 05:11:41;;;;;;;26.55;9.82;;;;;;;;;;4990406;28;20046;-69
2023/05/14 05:14:06;;;;;;;21.85;10.00;;;12.70;99.90;;;;;;4974553;28;20547;-68
2023/05/14 05:16:32;;;;;;;18.60;10.38;;;;;;;;;;4990851;28;20046;-68
2023/05/14 05:18:58;;;;;;;21.02;9.40;;;;;;;;;;4991227;28;20533;-69
2023/05/14 05:21:25;;;;;;;18.65;9.73;;;;;;;;;;4991156;28;20050;-68
2023/05/14 05:23:51;;;;;;;16.90;8.82;;;;;;;;;;4991435;28;20534;-69
2023/05/14 05:26:17;;;;;;;17.00;9.13;;;;;;;;;;4991291;28;20043;-68
2023/05/14 05:28:42;;;;;;;19.73;9.15;;;13.30;99.90;;;;;;4991244;28;20042;-69
2023/05/14 05:31:08;;;;;;;23.60;9.18;;;13.10;99.90;;;;;;4991158;28;20046;-69
2023/05/14 05:33:34;;;;;;;20.63;9.32;;;13.30;99.90;;;;;;4990195;28;20034;-68
2023/05/14 05:36:00;;;;;;;19.83;10.55;;;;;;;;;;4984351;28;20043;-68
2023/05/14 05:38:26;;;;;;;21.02;9.18;;;12.90;99.90;;;;;;4954506;28;20044;-68
2023/05/14 05:40:52;;;;;;;26.45;9.23;;;;;;;;;;4971143;28;20043;-67
2023/05/14 05:43:18;;;;;;;19.80;9.05;;;;;;;;;;4972062;28;20050;-68
2023/05/14 05:45:44;;;;;;;19.63;9.38;;;;;;;;;;4977336;28;20594;-68
2023/05/14 05:48:10;;;;;;;22.58;9.27;;;13.30;99.90;;;;;;5006429;28;20050;-68
2023/05/14 05:50:36;;;;;;;20.02;9.68;;;13.30;99.90;;;;;;4989409;28;20038;-68
2023/05/14 05:53:02;;;;;;;21.73;9.80;;;;;;;;;;4990007;28;20499;-68
2023/05/14 05:55:28;;;;;;;20.60;9.32;;;13.40;99.90;;;;;;4990511;28;20061;-68
2023/05/14 05:57:55;;;;;;;17.23;9.05;;;;;;;;;;4989082;28;20066;-68
2023/05/14 06:00:20;;;;;;;18.75;9.57;;;12.20;99.90;;;;;;5007395;28;20038;-67
2023/05/14 06:02:46;;;;;;;14.57;8.70;;;;;;;;;;4990525;28;20046;-68
2023/05/14 06:05:12;;;;;;;20.17;9.50;;;13.20;99.90;;;;;;4974126;28;20488;-68
2023/05/14 06:07:38;;;;;;;21.10;8.70;;;13.20;99.90;;;;;;4991631;28;20078;-68
2023/05/14 06:10:04;;;;;;;16.67;9.45;;;13.30;99.90;;;;;;4990198;28;20034;-68
2023/05/14 06:12:29;;;;;;;29.98;10.35;;;13.50;99.90;;;;;;4990709;28;20120;-68
2023/05/14 06:14:56;;;;;;;20.73;8.60;;;;;;;;;;4990580;28;20124;-69
2023/05/14 06:17:23;;;;;;;22.33;9.13;;;13.50;99.90;;;;;;4987887;28;20122;-69
2023/05/14 06:19:49;;;;;;;20.35;8.45;;;13.90;99.90;;;;;;5005971;28;20124;-69
2023/05/14 06:22:15;;;;;;;14.73;7.70;;;;;;;;;;4990164;28;20423;-68
2023/05/14 06:24:41;;;;;;;19.88;8.93;;;;;;;;;;5006623;28;20044;-69
2023/05/14 06:27:08;;;;;;;14.07;8.23;;;;;;;;;;5006457;28;20034;-68
2023/05/14 06:29:34;;;;;;;17.80;8.02;;;;;;;;;;5006599;28;20137;-68
2023/05/14 06:32:03;;;;;;;22.80;9.00;;;13.60;99.90;;;;;;5006311;28;20045;-68
2023/05/14 06:34:29;;;;;;;21.60;9.77;;;13.70;99.90;;;;;;4991422;28;20038;-68
2023/05/14 06:36:56;;;;;;;19.17;9.20;;;;;;;;;;4986307;28;20034;-68
2023/05/14 06:39:23;;;;;;;24.25;10.23;;;;;;;;;;4972575;28;20030;-68
2023/05/14 06:41:49;;;;;;;21.45;9.88;;;13.80;99.90;;;;;;4988608;28;20042;-69
2023/05/14 06:44:15;;;;;;;26.30;10.60;;;14.00;99.90;;;;;;4989717;28;20042;-68
2023/05/14 06:46:41;;;;;;;24.92;10.95;;;14.10;99.90;;;;;;4988920;28;20045;-68
2023/05/14 06:49:07;;;;;;;18.45;9.77;;;;;;;;;;4990168;28;20030;-68
2023/05/14 06:51:33;;;;;;;19.38;9.40;;;;;;;;;;4990121;28;20034;-68
2023/05/14 06:53:59;;;;;;;22.83;10.65;;;;;;;;;;4989204;28;20042;-68
2023/05/14 06:56:25;;;;;;;18.80;9.98;;;;;;;;;;4971295;28;20105;-68
2023/05/14 06:58:51;;;;;;;18.15;10.05;;;14.40;99.90;;;;;;4971800;28;20055;-68
2023/05/14 07:01:16;;;;;;;20.30;9.70;;;;;;;;;;4976591;28;20122;-68
2023/05/14 07:03:42;;;;;;;19.98;9.52;;;14.50;99.90;;;;;;4978181;28;20050;-68
2023/05/14 07:06:08;;;;;;;16.40;9.25;;;14.80;99.90;;;;;;4974694;28;20039;-67
2023/05/14 07:08:34;;;;;;;24.15;10.02;;;;;;;;;;4976269;28;20034;-68
2023/05/14 07:10:59;;;;;;;18.63;9.43;;;14.70;99.90;;;;;;4973147;28;20082;-68
2023/05/14 07:13:25;;;;;;;24.90;10.15;;;14.70;99.90;;;;;;4959697;28;20030;-67
2023/05/14 07:15:51;;;;;;;22.92;9.55;;;14.60;99.90;;;;;;4961819;28;20046;-68
2023/05/14 07:18:17;;;;;;;31.50;9.63;;;14.70;99.90;;;;;;4980271;28;20061;-68
2023/05/14 07:20:43;;;;;;;21.23;10.50;;;14.80;99.90;;;;;;4993900;28;20038;-68
2023/05/14 07:23:09;;;;;;;18.50;8.95;;;;;;;;;;4992591;28;20081;-68
2023/05/14 07:25:35;;;;;;;20.88;9.43;;;;;;;;;;4976991;28;20034;-69
2023/05/14 07:28:00;;;;;;;17.30;9.02;;;14.70;99.90;;;;;;4993274;28;20038;-68
2023/05/14 07:30:26;;;;;;;19.88;8.63;;;;;;;;;;4992953;28;20597;-66
2023/05/14 07:32:52;;;;;;;20.52;9.43;;;15.30;99.90;;;;;;4993178;28;20045;-67
2023/05/14 07:35:17;;;;;;;14.23;7.85;;;15.70;99.90;;;;;;4991725;28;20407;-68
2023/05/14 07:37:43;;;;;;;18.75;8.38;;;;;;;;;;4974088;28;20043;-68
2023/05/14 07:40:09;;;;;;;19.52;8.82;;;;;;;;;;4957960;28;20047;-68
2023/05/14 07:42:36;;;;;;;18.77;8.23;;;;;;;;;;4977414;28;20038;-68
2023/05/14 07:45:02;;;;;;;15.20;7.65;;;;;;;;;;4993314;28;20039;-68
2023/05/14 07:47:28;;;;;;;22.80;7.57;;;15.80;99.90;;;;;;4994703;28;20038;-68
2023/05/14 07:49:55;;;;;;;15.20;6.60;;;15.70;99.90;;;;;;4993209;28;20050;-68
2023/05/14 07:52:21;;;;;;;14.15;6.90;;;15.90;99.90;;;;;;4976694;28;20043;-69
2023/05/14 07:54:46;;;;;;;16.02;7.20;;;16.00;99.90;;;;;;5009757;28;20420;-68
2023/05/14 07:57:12;;;;;;;16.30;8.63;;;;;;;;;;4992763;28;20049;-68
2023/05/14 07:59:38;;;;;;;20.30;7.72;;;;;;;;;;5009145;28;20121;-68
2023/05/14 08:02:05;;;;;;;18.17;7.75;;;;;;;;;;4992815;28;20049;-68
2023/05/14 08:04:31;;;;;;;13.88;7.40;;;;;;;;;;5009256;28;20507;-68
2023/05/14 08:06:57;;;;;;;18.15;7.75;;;;;;;;;;4992885;28;20496;-68
2023/05/14 08:09:23;;;;;;;16.10;7.82;;;;;;;;;;4992957;28;20102;-69
2023/05/14 08:11:49;;;;;;;18.05;7.53;;;;;;;;;;4992062;28;20051;-68
2023/05/14 08:14:15;;;;;;;15.15;7.65;;;;;;;;;;4992770;28;20049;-68
2023/05/14 08:16:41;;;;;;;14.73;8.35;;;;;;;;;;4992706;28;20148;-69
2023/05/14 08:19:06;;;;;;;12.73;7.15;;;16.50;99.90;;;;;;4992649;28;20508;-69
2023/05/14 08:21:32;;;;;;;21.98;7.07;;;16.90;99.90;;;;;;4992694;28;20042;-69
2023/05/14 08:23:58;;;;;;;14.63;7.18;;;17.00;99.90;;;;;;4992852;28;20492;-68
2023/05/14 08:26:24;;;;;;;12.02;7.05;;;;;;;;;;4992480;28;20074;-69
2023/05/14 08:28:50;;;;;;;15.95;7.05;;;17.00;99.90;;;;;;4976475;28;20061;-69
2023/05/14 08:31:16;;;;;;;21.45;7.90;;;;;;;;;;4976264;28;20046;-69
2023/05/14 08:33:42;;;;;;;14.80;6.90;;;;;;;;;;4992328;28;20050;-68
2023/05/14 08:36:08;;;;;;;11.52;6.30;;;;;;;;;;5009227;28;20476;-68
2023/05/14 08:38:34;;;;;;;19.63;7.80;;;;;;;;;;4992433;28;20046;-69
2023/05/14 08:41:00;;;;;;;19.00;7.70;;;;;;;;;;4992136;28;20060;-69
2023/05/14 08:43:31;;;;;;;17.23;6.47;;;16.70;99.90;;;;;;4993343;28;20049;-69
2023/05/14 08:45:59;;;;;;;24.75;7.38;;;16.90;99.90;;;;;;4992073;28;20042;-69
2023/05/14 08:48:30;;;;;;;12.57;6.80;;;17.10;99.90;;;;;;4976260;28;20061;-68
2023/05/14 08:50:56;;;;;;;11.35;6.85;;;17.00;99.90;;;;;;4992066;28;20216;-69
2023/05/14 08:53:22;;;;;;;14.65;7.18;;;17.10;99.90;;;;;;4992103;28;20046;-69
2023/05/14 08:55:50;;;;;;;18.27;7.72;;;17.40;99.90;;;;;;4991984;28;20042;-69
2023/05/14 08:58:16;;;;;;;22.45;7.38;;;17.50;99.90;;;;;;4991944;28;20500;-68
2023/05/14 09:00:42;;;;;;;15.68;7.10;;;17.50;99.90;;;;;;4991741;28;20038;-68
2023/05/14 09:03:08;;;;;;;11.93;6.72;;;17.50;99.90;;;;;;4991876;28;20038;-69
2023/05/14 09:05:34;;;;;;;14.55;6.57;;;;;;;;;;4992155;28;20141;-68
2023/05/14 09:08:00;;;;;;;14.93;6.70;;;17.60;99.90;;;;;;4991858;28;20042;-69
2023/05/14 09:10:26;;;;;;;18.63;6.10;;;;;;;;;;4991788;28;20038;-69
2023/05/14 09:12:52;;;;;;;13.45;7.07;;;17.70;99.90;;;;;;4992069;28;20038;-69
2023/05/14 09:15:18;;;;;;;12.23;5.80;;;;;;;;;;4991621;28;20510;-69
2023/05/14 09:17:46;;;;;;;14.15;5.45;;;18.00;99.90;;;;;;4991611;28;20046;-69
2023/05/14 09:20:13;;;;;;;14.07;6.47;;;17.70;99.90;;;;;;4991791;28;20042;-69
2023/05/14 09:22:39;;;;;;;11.95;6.25;;;17.50;99.90;;;;;;4992141;28;20046;-69
2023/05/14 09:25:08;;;;;;;17.00;6.65;;;17.60;99.90;;;;;;4991429;28;20423;-69
2023/05/14 09:27:34;;;;;;;10.98;6.95;;;17.70;99.90;;;;;;5007844;28;20567;-69
2023/05/14 09:30:11;;;;;;;15.23;6.10;;;18.00;99.90;;;;;;4991768;28;20046;-69
2023/05/14 09:32:39;;;;;;;13.48;5.78;;;18.40;99.90;;;;;;5008016;28;20042;-69
2023/05/14 09:35:16;;;;;;;13.93;6.35;;;18.50;99.90;;;;;;4991654;28;20039;-68
2023/05/14 09:37:45;;;;;;;12.00;5.65;;;18.30;99.90;;;;;;4991303;28;20038;-69
2023/05/14 09:40:12;;;;;;;17.42;6.30;;;18.30;99.90;;;;;;5007789;28;20412;-69
2023/05/14 09:42:38;;;;;;;17.00;6.22;;;18.00;99.90;;;;;;4990966;28;20075;-68
2023/05/14 09:45:07;;;;;;;12.45;6.47;;;18.20;99.90;;;;;;4991500;28;20415;-69
2023/05/14 09:47:32;;;;;;;11.18;6.32;;;18.50;99.90;;;;;;4991190;28;20039;-69
2023/05/14 09:49:58;;;;;;;14.68;7.40;;;18.50;99.90;;;;;;4991397;28;20046;-69
2023/05/14 09:52:24;;;;;;;13.88;6.43;;;18.60;99.90;;;;;;4990606;28;20040;-69
2023/05/14 09:54:51;;;;;;;13.65;6.10;;;18.50;99.90;;;;;;4990961;28;20125;-69
2023/05/14 09:57:16;;;;;;;10.65;5.75;;;19.00;99.90;;;;;;4992405;28;20100;-69
2023/05/14 09:59:42;;;;;;;11.23;5.65;;;19.10;99.90;;;;;;4974822;28;20512;-69
2023/05/14 10:02:25;;;;;;;12.30;6.35;;;19.10;99.90;;;;;;4990710;28;20042;-69
2023/05/14 10:04:52;;;;;;;11.65;6.47;;;19.20;99.90;;;;;;4991081;28;20106;-69
2023/05/14 10:07:22;;;;;;;18.35;6.28;;;19.30;99.90;;;;;;5007496;28;20043;-69
2023/05/14 10:09:50;;;;;;;8.93;5.60;;;19.30;99.90;;;;;;4990925;28;20042;-69
2023/05/14 10:12:21;;;;;;;11.77;5.43;;;19.20;99.90;;;;;;4990402;28;20097;-69
2023/05/14 10:14:49;;;;;;;9.25;5.90;;;19.80;99.90;;;;;;4990961;28;20057;-69
2023/05/14 10:17:18;;;;;;;18.95;6.50;;;19.40;99.90;;;;;;4991298;28;20038;-69
2023/05/14 10:19:51;;;;;;;13.35;5.82;;;19.50;99.90;;;;;;4990728;28;20571;-69
2023/05/14 10:22:21;;;;;;;;;;;20.40;99.90;;;;;;4991353;28;20046;-70
2023/05/14 10:24:49;;;;;;;13.93;6.53;;;19.50;99.90;;;;;;4990749;28;19922;-69
2023/05/14 10:27:16;;;;;;;9.55;6.05;;;19.40;99.90;;;;;;4974983;28;20091;-69
2023/05/14 10:29:52;;;;;;;16.48;6.72;;;19.80;99.90;;;;;;4991004;28;20095;-70
2023/05/14 10:32:19;;;;;;;17.83;6.63;;;20.00;99.90;;;;;;4990106;28;20039;-69
2023/05/14 10:34:45;;;;;;;13.30;6.85;;;19.70;99.90;;;;;;4992240;28;20057;-69
2023/05/14 10:37:13;;;;;;;12.35;5.70;;;19.80;99.90;;;;;;4994542;28;20042;-69
2023/05/14 10:39:52;;;;;;;13.30;6.47;;;19.80;99.90;;;;;;4994707;28;20038;-69
2023/05/14 10:42:19;;;;;;;11.98;5.90;;;19.90;99.90;;;;;;4994391;28;20531;-69
2023/05/14 10:45:00;;;;;;;12.45;6.47;;;20.10;99.90;;;;;;4994330;28;20054;-68
2023/05/14 10:47:27;;;;;;;9.75;5.35;;;20.00;99.90;;;;;;4994357;28;20053;-69
2023/05/14 10:49:55;;;;;;;10.65;5.22;;;20.20;99.90;;;;;;4978262;28;20084;-69
2023/05/14 10:52:22;;;;;;;14.27;6.10;;;20.40;99.90;;;;;;4994155;28;20447;-70
2023/05/14 10:54:58;;;;;;;13.00;6.65;;;20.20;99.90;;;;;;4978190;28;20042;-69
2023/05/14 10:57:26;;;;;;;7.65;5.72;;;20.20;99.90;;;;;;4994214;28;20042;-69
2023/05/14 10:59:53;;;;;;;12.35;6.20;;;20.50;99.90;;;;;;4994200;28;20562;-69
2023/05/14 11:02:31;;;;;;;13.30;6.00;;;20.70;99.90;;;;;;4977762;28;20050;-69
2023/05/14 11:05:08;;;;;;;12.45;5.88;;;20.80;99.90;;;;;;4977842;28;20078;-69
2023/05/14 11:07:36;;;;;;;12.43;6.30;;;20.60;99.90;;;;;;4993954;28;20121;-69
2023/05/14 11:10:15;;;;;;;10.70;6.95;;;22.10;99.90;;;;;;5011129;28;20407;-69
2023/05/14 11:12:46;;;;;;;15.43;6.32;;;20.30;99.90;;;;;;4994007;28;20141;-68
2023/05/14 11:15:14;;;;;;;13.02;6.78;;;20.20;99.90;;;;;;4994115;28;20297;-69
2023/05/14 11:17:41;;;;;;;13.57;6.30;;;20.30;99.90;;;;;;4994027;28;20184;-70
2023/05/14 11:20:08;;;;;;;15.18;7.53;;;20.60;99.90;;;;;;4993881;28;20038;-69
2023/05/14 11:22:36;;;;;;;10.25;5.55;;;20.60;99.90;;;;;;4993583;28;20049;-69
2023/05/14 11:25:02;;;;;;;13.07;5.90;;;20.80;99.90;;;;;;4993704;28;20042;-68
2023/05/14 11:27:28;;;;;;;12.63;6.70;;;20.90;99.90;;;;;;4993535;28;20041;-69
2023/05/14 11:29:54;;;;;;;13.73;5.90;;;20.90;99.90;;;;;;4995013;28;20065;-69
2023/05/14 11:32:20;;;;;;;12.40;6.10;;;21.10;99.90;;;;;;4993303;28;20042;-69
2023/05/14 11:34:46;;;;;;;13.43;6.78;;;21.40;99.90;;;;;;4993886;28;20504;-69
2023/05/14 11:37:15;;;;;;;11.40;7.05;;;21.10;99.90;;;;;;4993548;28;20129;-69
2023/05/14 11:39:52;;;;;;;11.57;6.30;;;21.10;99.90;;;;;;5009956;28;20084;-69
2023/05/14 11:42:18;;;;;;;15.32;6.10;;;21.10;99.90;;;;;;4993200;28;20046;-69
2023/05/14 11:44:51;;;;;;;12.65;5.82;;;21.50;99.90;;;;;;4993354;28;20093;-70
2023/05/14 11:47:19;;;;;;;10.10;6.00;;;21.70;99.90;;;;;;4992551;28;20077;-69
2023/05/14 11:49:45;;;;;;;11.63;5.72;;;21.70;99.90;;;;;;4977099;28;20038;-69
2023/05/14 11:52:15;;;;;;;11.10;6.00;;;21.80;99.90;;;;;;4993445;28;20464;-69
2023/05/14 11:54:44;;;;;;;10.63;5.60;;;22.90;99.90;;;;;;4974211;28;20089;-69
2023/05/14 11:57:12;;;;;;;11.70;7.15;;;22.80;99.90;;;;;;4973795;28;20046;-69
2023/05/14 11:59:40;;;;;;;11.27;5.55;;;;;;;;;;4975411;28;20045;-69
2023/05/14 12:02:13;;;;;;;11.32;6.28;;;;;;;;;;4992782;28;20515;-69
2023/05/14 12:04:40;;;;;;;9.55;5.63;;;;;;;;;;4992971;28;20121;-69
2023/05/14 12:07:12;;;;;;;8.10;5.40;;;;;;;;;;4993558;28;20552;-69
2023/05/14 12:09:48;;;;;;;10.23;5.55;;;;;;;;;;4993169;28;20526;-69
2023/05/14 12:12:17;;;;;;;12.02;6.35;;;;;;;;;;5008943;28;20046;-70
2023/05/14 12:14:44;;;;;;;9.55;5.32;;;;;;;;;;4993123;28;20046;-69
2023/05/14 12:17:20;;;;;;;10.43;5.50;;;;;;;;;;4992784;28;20105;-69
2023/05/14 12:19:47;;;;;;;9.48;4.93;;;;;;;;;;4992833;28;20038;-69
2023/05/14 12:22:15;;;;;;;14.65;5.90;;;;;;;;;;4992663;28;20444;-70
2023/05/14 12:24:42;;;;;;;8.88;5.68;;;;;;;;;;4976257;28;20133;-69
2023/05/14 12:27:09;;;;;;;11.05;5.70;;;;;;;;;;4992339;28;20049;-69
2023/05/14 12:29:38;;;;;;;10.80;6.07;;;;;;;;;;4992574;28;20046;-69
2023/05/14 12:32:11;;;;;;;12.10;5.40;;;;;;;;;;4991045;28;20082;-70
2023/05/14 12:34:37;;;;;;;10.80;6.32;;;;;;;;;;4991295;28;20211;-69
2023/05/14 12:37:03;;;;;;;12.63;6.28;;;;;;;;;;4990619;28;20471;-69
2023/05/14 12:39:30;;;;;;;8.38;5.10;;;;;;;;;;5008037;28;20129;-69
2023/05/14 12:41:55;;;;;;;9.38;5.32;;;22.30;99.90;;;;;;4991545;28;20128;-69
2023/05/14 12:44:21;;;;;;;9.77;5.80;;;22.50;99.90;;;;;;4991685;28;20121;-69
2023/05/14 12:46:47;;;;;;;8.15;5.57;;;22.30;99.90;;;;;;4991690;28;20030;-70
2023/05/14 12:49:12;;;;;;;8.25;5.10;;;22.40;99.90;;;;;;4991639;28;20034;-69
2023/05/14 12:51:38;;;;;;;11.55;5.70;;;22.70;99.90;;;;;;4991356;28;20037;-70
2023/05/14 12:54:03;;;;;;;15.45;6.32;;;22.50;99.90;;;;;;4991706;28;20073;-69
2023/05/14 12:56:30;;;;;;;10.95;5.93;;;22.30;99.90;;;;;;4991378;28;20042;-69
2023/05/14 12:58:56;;;;;;;11.68;5.72;;;22.20;99.90;;;;;;4992979;28;20039;-69
2023/05/14 13:01:23;;;;;;;9.20;5.03;;;23.30;99.90;;;;;;4991887;28;20105;-68
2023/05/14 13:03:50;;;;;;;9.75;4.55;;;23.20;99.90;;;;;;4975517;28;20046;-69
2023/05/14 13:06:15;;;;;;;9.40;5.35;;;23.10;99.90;;;;;;4991748;28;20084;-69
2023/05/14 13:08:41;;;;;;;10.95;5.93;;;22.90;99.90;;;;;;4991376;28;20121;-70
2023/05/14 13:11:07;;;;;;;10.27;5.63;;;22.70;99.90;;;;;;4991927;28;20129;-70